Time;durP1;ratioP1;P1;durP2;ratioP2;P2;SDS_P1;SDS_P2;PMS_P1;PMS_P2;Temp;Humidity;BMP_temperature;BMP_pressure;BME280_temperature;BME280_humidity;BME280_pressure;Samples;Min_cycle;Max_cycle;Signal;HPM_P1;HPM_P2
2022/06/10 00:05:27;;;;;;;6.70;3.30;;;;;;;25.24;47.29;99867.20;103765;1315;75152;-88
2022/06/10 00:11:07;;;;;;;9.60;2.90;;;;;;;25.20;47.35;99869.59;103807;1315;67555;-90
2022/06/10 00:14:10;;;;;;;5.00;3.10;;;;;;;25.24;47.41;99869.10;103786;1315;67425;-88
2022/06/10 00:19:50;;;;;;;4.80;3.30;;;;;;;25.22;47.06;99870.48;103787;1316;75844;-90
2022/06/10 00:25:28;;;;;;;4.50;3.10;;;;;;;25.21;47.30;99873.31;103818;1315;67092;-89
2022/06/10 00:34:24;;;;;;;5.40;3.40;;;;;;;25.18;46.98;99868.23;103630;1325;80526;-89
2022/06/10 00:44:05;;;;;;;4.30;3.20;;;;;;;25.18;47.10;99878.94;103754;1315;67136;-92
2022/06/10 00:47:11;;;;;;;6.40;3.30;;;;;;;25.17;46.98;99881.02;99730;1318;5597360;-90
2022/06/10 00:53:19;;;;;;;3.60;3.20;;;;;;;25.13;46.99;99882.73;103754;1318;72436;-89
2022/06/10 00:58:59;;;;;;;5.30;3.20;;;;;;;25.15;46.96;99890.60;103789;1315;67137;-89
2022/06/10 01:04:42;;;;;;;;;;;;;;;25.11;46.87;99883.35;103787;1315;81743;-91
2022/06/10 01:15:51;;;;;;;5.30;3.30;;;;;;;25.11;46.72;99882.17;103734;1315;73891;-89
2022/06/10 01:19:08;;;;;;;5.70;3.20;;;;;;;25.10;46.80;99881.23;103773;1316;81892;-89
2022/06/10 01:25:18;;;;;;;8.20;3.50;;;;;;;25.12;46.62;99883.43;103801;1327;66997;-89
2022/06/10 01:31:33;;;;;;;7.60;3.30;;;;;;;25.07;46.67;99883.86;103732;1316;67751;-89
2022/06/10 01:46:31;;;;;;;5.80;3.60;;;;;;;25.06;46.54;99890.30;103764;1315;73788;-90
2022/06/10 01:52:32;;;;;;;4.70;3.30;;;;;;;25.07;46.37;99894.16;103733;1326;71699;-88
2022/06/10 01:57:58;;;;;;;4.90;3.20;;;;;;;25.04;46.50;99894.90;103768;1315;67660;-88
2022/06/10 02:06:01;;;;;;;4.90;3.30;;;;;;;25.08;46.52;99899.79;103788;1315;70532;-87
2022/06/10 02:11:30;;;;;;;5.30;2.90;;;;;;;25.03;46.48;99900.58;103756;1316;67794;-89
2022/06/10 02:17:10;;;;;;;8.40;3.80;;;;;;;25.07;46.45;99897.60;103782;1315;80755;-89
2022/06/10 02:22:54;;;;;;;5.70;3.70;;;;;;;25.03;46.44;99901.77;103751;1315;67771;-89
2022/06/10 02:28:38;;;;;;;5.60;4.10;;;;;;;25.01;46.50;99915.15;103750;1318;74108;-88
2022/06/10 02:37:23;;;;;;;4.30;3.20;;;;;;;24.97;46.55;99921.21;103764;1315;67069;-91
2022/06/10 02:40:18;;;;;;;5.90;3.40;;;;;;;24.95;46.50;99924.27;103775;1315;67719;-88
2022/06/10 02:46:22;;;;;;;6.70;3.50;;;;;;;25.00;46.68;99934.69;103587;1321;81753;-91
2022/06/10 02:51:54;;;;;;;8.20;5.30;;;;;;;25.06;46.63;99936.66;103762;1315;67810;-89
2022/06/10 02:54:33;;;;;;;6.60;4.60;;;;;;;25.03;46.49;99941.92;103669;1319;67696;-89
2022/06/10 03:05:49;;;;;;;8.60;6.80;;;;;;;24.75;46.75;99952.95;103714;1315;67613;-87
2022/06/10 03:11:39;;;;;;;112.10;11.00;;;;;;;24.63;46.73;99951.50;103779;1316;74018;-90
2022/06/10 03:17:25;;;;;;;15.80;7.70;;;;;;;24.57;46.80;99952.21;103796;1316;71860;-88
2022/06/10 03:20:51;;;;;;;16.60;8.00;;;;;;;24.53;46.84;99959.46;103741;1315;67614;-89
2022/06/10 03:23:40;;;;;;;11.80;7.70;;;;;;;24.48;46.87;99962.23;103820;1315;67181;-89
2022/06/10 03:32:50;;;;;;;11.10;7.00;;;;;;;24.30;47.27;99963.92;103757;1315;72113;-90
2022/06/10 03:38:30;;;;;;;9.90;6.50;;;;;;;24.21;47.57;99966.54;103763;1315;67698;-89
2022/06/10 03:44:07;;;;;;;11.00;8.00;;;;;;;24.10;47.60;99965.22;103774;1315;81434;-89
2022/06/10 03:49:46;;;;;;;11.90;7.40;;;;;;;23.98;47.84;99965.81;103773;1318;67857;-90
2022/06/10 03:55:20;;;;;;;8.80;7.00;;;;;;;23.89;48.06;99966.04;103819;1328;75036;-90
2022/06/10 04:04:00;;;;;;;10.20;7.00;;;;;;;23.84;48.51;99979.23;103762;1327;67094;-90
2022/06/10 04:09:37;;;;;;;8.40;6.50;;;;;;;23.82;48.47;99985.52;103771;1316;74656;-89
2022/06/10 04:20:34;;;;;;;11.80;7.30;;;;;;;23.84;48.74;99988.79;103800;1316;67947;-89
2022/06/10 04:23:07;;;;;;;10.70;7.50;;;;;;;23.84;48.93;99988.31;103783;1327;73924;-90
2022/06/10 04:25:56;;;;;;;16.00;7.30;;;;;;;23.85;48.89;99990.04;103709;1318;73086;-90
2022/06/10 04:31:37;;;;;;;33.60;21.20;;;;;;;23.85;48.97;99992.50;103757;1315;66026;-90
2022/06/10 04:34:11;;;;;;;24.00;19.90;;;;;;;23.85;49.01;99992.91;103687;1318;67128;-89
2022/06/10 04:37:11;;;;;;;24.70;18.20;;;;;;;23.87;49.01;99994.94;103713;1318;73435;-90
2022/06/10 04:42:33;;;;;;;19.30;11.70;;;;;;;23.83;49.11;100004.68;103765;1323;72396;-89
2022/06/10 04:45:25;;;;;;;13.90;9.60;;;;;;;23.81;49.31;100007.80;103561;1327;68019;-88
2022/06/10 04:47:54;;;;;;;11.50;8.50;;;;;;;23.81;49.29;100011.70;103537;1327;67170;-89
2022/06/10 04:50:21;;;;;;;13.00;8.60;;;;;;;23.85;49.25;100013.27;103607;1328;67719;-88
2022/06/10 04:52:59;;;;;;;9.40;7.80;;;;;;;23.84;49.34;100008.20;103643;1328;74698;-89
2022/06/10 04:58:22;;;;;;;8.00;7.20;;;;;;;23.89;49.30;100021.38;103713;1316;67714;-89
2022/06/10 05:04:18;;;;;;;10.60;7.50;;;;;;;23.92;49.58;100024.65;103727;1318;74302;-90
2022/06/10 05:07:06;;;;;;;14.80;7.60;;;;;;;23.89;49.43;100026.23;103769;1319;82581;-88
2022/06/10 05:18:55;;;;;;;12.90;7.70;;;;;;;23.80;49.73;100034.38;103683;1319;74819;-92
2022/06/10 05:21:50;;;;;;;7.70;6.70;;;;;;;23.78;49.61;100040.21;103781;1315;81995;-90
2022/06/10 05:27:44;;;;;;;10.80;6.70;;;;;;;23.71;49.86;100050.27;103752;1328;67576;-89
2022/06/10 05:39:28;;;;;;;8.20;6.40;;;;;;;23.66;50.05;100069.97;103708;1319;72054;-90
2022/06/10 05:45:03;;;;;;;10.10;7.10;;;;;;;23.66;50.11;100070.54;103772;1315;67808;-89
2022/06/10 05:50:39;;;;;;;7.80;6.10;;;;;;;23.65;50.17;100066.34;103778;1316;81871;-87
2022/06/10 05:56:16;;;;;;;10.70;5.40;;;;;;;23.58;50.21;100060.39;103737;1315;68151;-89
2022/06/10 06:01:56;;;;;;;6.00;5.40;;;;;;;23.63;50.19;100076.80;103783;1316;68346;-90
2022/06/10 06:07:33;;;;;;;9.20;5.50;;;;;;;23.66;50.27;100084.20;103736;1315;67824;-88
2022/06/10 06:13:28;;;;;;;7.20;5.30;;;;;;;23.70;50.30;100092.76;103823;1316;67053;-89
2022/06/10 06:19:02;;;;;;;10.30;5.10;;;;;;;23.67;50.22;100095.33;103658;1317;81821;-90
2022/06/10 06:24:28;;;;;;;11.80;5.20;;;;;;;23.66;50.09;100096.36;103665;1321;67863;-90
2022/06/10 06:26:58;;;;;;;6.20;4.60;;;;;;;23.65;50.08;100093.04;103633;1328;67083;-90
2022/06/10 06:32:21;;;;;;;6.80;5.60;;;;;;;23.65;50.06;100092.44;103764;1318;75110;-89
2022/06/10 06:35:13;;;;;;;6.30;5.10;;;;;;;23.66;49.89;100094.48;103576;1318;72319;-88
2022/06/10 06:40:47;;;;;;;8.30;4.60;;;;;;;23.71;49.93;100099.23;103711;1319;67755;-90
2022/06/10 06:43:15;;;;;;;5.50;4.60;;;;;;;23.72;49.68;100094.92;103792;1325;74940;-89
2022/06/10 06:45:43;;;;;;;7.50;4.20;;;;;;;23.70;49.56;100091.72;103662;1328;67902;-89
2022/06/10 06:50:47;;;;;;;4.70;4.00;;;;;;;23.67;49.65;100082.12;103736;1318;67762;-90
2022/06/10 06:55:46;;;;;;;6.90;3.90;;;;;;;23.68;49.51;100076.52;103675;1318;67132;-89
2022/06/10 06:58:20;;;;;;;4.70;3.30;;;;;;;23.68;49.58;100077.80;103648;1328;74569;-89
2022/06/10 07:00:47;;;;;;;6.20;4.00;;;;;;;23.65;49.31;100085.55;103636;1319;67198;-89
2022/06/10 07:08:57;;;;;;;7.50;4.50;;;;;;;23.66;49.58;100087.73;97917;1330;73468;-89
2022/06/10 07:11:25;;;;;;;9.80;4.80;;;;;;;23.67;49.52;100090.95;103559;1329;83923;-88
2022/06/10 07:13:52;;;;;;;5.50;4.20;;;;;;;23.66;49.49;100089.33;103571;1330;67695;-89
2022/06/10 07:16:18;;;;;;;5.10;4.00;;;;;;;23.67;49.53;100097.18;103621;1331;67835;-89
2022/06/10 07:18:59;;;;;;;7.80;4.80;;;;;;;23.71;49.61;100095.55;103610;1319;67083;-87
2022/06/10 07:21:30;;;;;;;8.60;4.50;;;;;;;23.74;49.62;100092.73;103572;1329;67330;-90
2022/06/10 07:32:09;;;;;;;9.30;4.70;;;;;;;23.70;49.90;100106.42;103776;1319;67096;-88
2022/06/10 07:41:56;;;;;;;6.70;4.30;;;;;;;23.73;49.80;100101.80;103749;1319;72060;-89
2022/06/10 07:46:22;;;;;;;6.20;4.30;;;;;;;23.77;49.74;100100.69;89093;1330;66450;-88
2022/06/10 07:49:11;;;;;;;11.60;4.60;;;;;;;23.79;49.83;100090.86;90886;1318;74448;-89
2022/06/10 07:54:45;;;;;;;7.40;4.80;;;;;;;23.81;49.90;100096.01;103775;1316;67279;-89
2022/06/10 07:57:49;;;;;;;7.90;4.70;;;;;;;23.78;49.84;100094.72;103691;1319;67030;-89
2022/06/10 08:03:13;;;;;;;7.00;4.90;;;;;;;23.81;49.87;100095.13;103684;1318;74524;-88
2022/06/10 08:05:40;;;;;;;10.60;4.90;;;;;;;23.84;49.96;100099.90;103591;1329;83609;-89
2022/06/10 08:13:29;;;;;;;8.10;5.40;;;;;;;23.88;49.72;100106.67;103786;1328;67259;-90
2022/06/10 08:16:06;;;;;;;11.90;9.00;;;;;;;23.87;49.78;100097.79;103639;1321;67770;-87
2022/06/10 08:18:55;;;;;;;9.30;7.70;;;;;;;23.87;49.86;100097.48;103660;1319;81973;-89
2022/06/10 08:24:08;;;;;;;11.60;5.30;;;;;;;23.84;49.75;100105.86;103694;1327;67743;-89
2022/06/10 08:26:36;;;;;;;6.90;4.90;;;;;;;23.83;49.55;100100.79;103705;1328;67205;-89
2022/06/10 08:31:56;;;;;;;;;;;;;;;23.82;49.48;100118.08;103732;1318;81968;-88
2022/06/10 08:34:45;;;;;;;9.50;4.80;;;;;;;23.79;49.49;100114.64;103541;1322;67672;-87
2022/06/10 08:40:18;;;;;;;7.00;4.10;;;;;;;23.80;49.55;100115.10;103759;1318;67677;-86
2022/06/10 08:42:54;;;;;;;6.60;4.20;;;;;;;23.82;49.27;100116.95;103738;1327;67806;-89
2022/06/10 08:45:40;;;;;;;5.30;3.90;;;;;;;23.85;49.37;100115.39;103723;1327;74678;-89
2022/06/10 08:51:12;;;;;;;11.30;6.60;;;;;;;23.98;49.25;100108.35;103730;1317;67599;-93
2022/06/10 08:56:36;;;;;;;7.50;5.30;;;;;;;24.03;48.98;100112.39;103729;1318;74283;-89
2022/06/10 08:59:17;;;;;;;12.10;5.20;;;;;;;24.04;49.06;100113.30;103679;1327;75630;-89
2022/06/10 09:07:12;;;;;;;8.50;4.80;;;;;;;24.15;49.05;100105.55;103741;1324;67769;-89
2022/06/10 09:15:11;;;;;;;9.70;4.00;;;;;;;24.23;48.72;100113.56;103625;1319;74227;-89
2022/06/10 09:30:11;;;;;;;6.80;4.10;;;;;;;24.26;48.59;100114.83;103706;1319;72382;31
2022/06/10 09:33:25;;;;;;;9.90;6.30;;;;;;;24.24;48.43;100118.38;103734;1317;67770;-87
2022/06/10 09:42:58;;;;;;;7.10;5.00;;;;;;;24.09;48.57;100123.16;103792;1316;81991;-91
2022/06/10 09:48:43;;;;;;;8.80;4.40;;;;;;;24.10;49.02;100125.98;103723;1316;67798;-90
2022/06/10 09:54:31;;;;;;;10.60;4.40;;;;;;;24.09;48.79;100132.02;103773;1316;74327;-91
2022/06/10 10:00:31;;;;;;;11.90;4.90;;;;;;;24.21;48.88;100128.40;103659;1318;72433;-91
2022/06/10 10:06:44;;;;;;;7.60;4.50;;;;;;;24.34;48.89;100129.48;103711;1319;68193;-91
2022/06/10 10:13:03;;;;;;;11.60;7.00;;;;;;;24.51;48.56;100131.80;103669;1319;81961;-91
2022/06/10 10:18:44;;;;;;;10.20;6.20;;;;;;;24.60;48.45;100126.67;103496;1319;195139;-91
2022/06/10 10:27:22;;;;;;;17.30;12.80;;;;;;;24.74;48.07;100127.02;89069;1329;80335;-90
2022/06/10 10:30:23;;;;;;;19.10;15.00;;;;;;;24.76;47.87;100126.30;103507;1316;220855;-91
2022/06/10 10:33:14;;;;;;;25.50;19.60;;;;;;;24.76;47.69;100125.17;103545;1315;198576;-89
2022/06/10 10:36:00;;;;;;;29.50;20.70;;;;;;;24.76;47.39;100120.30;103164;1319;194071;-91
2022/06/10 10:41:42;;;;;;;26.70;20.10;;;;;;;24.79;47.35;100118.93;103269;1316;212987;-90
2022/06/10 11:23:34;;;;;;;17.10;10.70;;;;;;;24.89;46.12;100082.70;103536;1319;71719;-90
2022/06/10 11:26:53;;;;;;;18.70;8.40;;;;;;;24.91;46.05;100088.20;103770;1318;67461;31
2022/06/10 11:32:42;;;;;;;14.80;6.30;;;;;;;24.82;46.21;100083.27;103626;1318;73388;-90
2022/06/10 11:38:29;;;;;;;18.80;11.20;;;;;;;24.77;46.29;100079.06;103684;1317;72318;-90
2022/06/10 11:44:27;;;;;;;17.40;10.00;;;;;;;24.69;46.47;100084.39;103697;1318;66847;-91
2022/06/10 11:50:35;;;;;;;10.00;5.70;;;;;;;24.63;46.52;100070.79;103704;1327;83371;-89
2022/06/10 12:01:33;;;;;;;12.00;5.30;;;;;;;24.65;46.61;100072.60;103817;1316;74402;-89
2022/06/10 12:04:21;;;;;;;14.10;4.80;;;;;;;24.63;46.54;100068.84;103588;1321;73321;-88
2022/06/10 12:10:03;;;;;;;15.50;5.10;;;;;;;24.60;46.78;100060.80;103768;1315;67846;-91
2022/06/10 12:12:39;;;;;;;12.50;4.80;;;;;;;24.61;46.72;100073.56;103792;1315;67591;-91
2022/06/10 12:15:39;;;;;;;10.70;4.50;;;;;;;24.58;46.66;100069.95;103687;1318;74325;-90
2022/06/10 12:21:18;;;;;;;7.20;3.60;;;;;;;24.50;46.68;100074.10;103706;1319;67011;-90
2022/06/10 12:27:13;;;;;;;12.80;3.80;;;;;;;24.46;46.83;100066.11;103796;1316;68046;-90
2022/06/10 12:30:05;;;;;;;6.30;3.20;;;;;;;24.43;46.76;100063.80;103777;1320;74385;-89
2022/06/10 12:32:53;;;;;;;6.50;4.10;;;;;;;24.40;46.72;100063.10;103727;1318;72870;-89
2022/06/10 12:35:46;;;;;;;8.50;4.90;;;;;;;24.40;46.86;100060.56;103710;1315;72306;-89
2022/06/10 12:38:31;;;;;;;6.90;4.10;;;;;;;24.42;46.93;100059.15;103740;1316;67179;-90
2022/06/10 12:44:28;;;;;;;5.70;3.80;;;;;;;24.43;46.87;100052.23;103771;1316;74201;-89
2022/06/10 12:50:06;;;;;;;8.10;3.70;;;;;;;24.45;46.95;100057.84;103770;1315;72264;-89
2022/06/10 12:56:33;;;;;;;6.00;3.30;;;;;;;24.45;46.88;100058.86;103729;1327;67584;-91
2022/06/10 12:59:33;;;;;;;7.10;3.70;;;;;;;24.44;46.82;100054.20;103779;1315;73745;-88
2022/06/10 13:05:32;;;;;;;5.30;3.70;;;;;;;24.43;46.75;100057.85;103752;1315;67801;-89
2022/06/10 13:11:24;;;;;;;27.50;21.40;;;;;;;24.41;46.65;100056.81;103765;1316;67867;-91
2022/06/10 13:17:29;;;;;;;7.90;6.80;;;;;;;24.43;46.57;100055.78;103670;1315;83316;-90
2022/06/10 13:22:37;;;;;;;5.80;4.50;;;;;;;24.48;46.35;100035.63;103809;1315;66080;-88
2022/06/10 13:26:00;;;;;;;5.50;4.00;;;;;;;24.49;46.27;100048.46;103710;1328;67023;-89
2022/06/10 13:34:42;;;;;;;7.10;3.80;;;;;;;24.53;46.32;100036.09;103789;1316;71608;-90
2022/06/10 13:40:17;;;;;;;4.20;3.40;;;;;;;24.59;46.08;100038.42;103813;1315;66980;-90
2022/06/10 13:45:53;;;;;;;4.50;3.40;;;;;;;24.58;46.13;100043.52;103792;1315;73431;-90
2022/06/10 13:51:49;;;;;;;4.40;3.70;;;;;;;24.65;45.95;100037.67;103788;1316;67789;-90
2022/06/10 13:57:33;;;;;;;4.30;3.70;;;;;;;24.72;45.95;100032.65;103774;1316;74214;-89
2022/06/10 14:00:40;;;;;;;7.30;3.50;;;;;;;24.78;45.86;100039.00;103816;1316;82013;-90
2022/06/10 14:06:33;;;;;;;4.10;3.30;;;;;;;24.84;45.66;100043.17;103764;1315;67671;-88
2022/06/10 14:12:24;;;;;;;5.70;4.00;;;;;;;24.86;45.80;100037.73;103769;1315;74121;-90
2022/06/10 14:18:07;;;;;;;6.10;4.00;;;;;;;24.89;45.58;100041.22;103744;1315;72403;-89
2022/06/10 14:24:17;;;;;;;5.90;3.80;;;;;;;24.89;45.45;100044.97;103777;1316;67606;-90
2022/06/10 14:30:03;;;;;;;6.10;4.00;;;;;;;24.85;45.34;100035.50;103745;1315;81846;-88
2022/06/10 14:35:39;;;;;;;4.70;4.20;;;;;;;24.86;45.40;100037.48;103725;1315;67091;-90
2022/06/10 14:41:24;;;;;;;4.50;3.60;;;;;;;24.86;45.35;100036.45;103778;1316;74316;-88
2022/06/10 14:47:22;;;;;;;5.60;3.90;;;;;;;24.84;45.34;100044.02;103653;1315;72392;-89
2022/06/10 14:52:55;;;;;;;6.00;4.10;;;;;;;24.91;45.49;100055.11;102143;1315;67920;-90
2022/06/10 15:04:18;;;;;;;4.50;4.00;;;;;;;25.01;45.36;100065.73;103682;1328;67746;-91
2022/06/10 15:10:05;;;;;;;5.20;4.30;;;;;;;25.09;45.27;100066.45;103787;1315;74858;-90
2022/06/10 15:15:37;;;;;;;7.90;4.70;;;;;;;25.05;45.28;100068.23;103768;1315;72322;-89
2022/06/10 15:21:12;;;;;;;4.60;3.90;;;;;;;25.11;45.37;100072.89;103762;1315;67191;-89
2022/06/10 15:26:45;;;;;;;8.50;3.90;;;;;;;25.07;45.15;100079.04;103739;1315;81953;-90
2022/06/10 15:32:32;;;;;;;5.10;4.20;;;;;;;25.10;45.36;100082.84;103848;1315;66968;-90
2022/06/10 15:44:32;;;;;;;4.70;4.20;;;;;;;25.13;45.33;100092.05;103769;1316;72367;-89
2022/06/10 15:50:06;;;;;;;6.50;4.60;;;;;;;25.14;45.23;100100.25;103771;1315;67798;-90
2022/06/10 16:01:24;;;;;;;5.60;5.00;;;;;;;25.18;45.33;100113.17;103743;1316;67761;-90
2022/06/10 16:07:04;;;;;;;7.90;4.60;;;;;;;25.14;45.29;100124.45;103796;1315;68169;-89
2022/06/10 16:13:07;;;;;;;5.00;4.20;;;;;;;25.19;45.35;100129.38;103759;1315;72315;-89
2022/06/10 16:18:45;;;;;;;5.40;4.30;;;;;;;25.15;45.38;100128.23;103765;1315;67031;-89
2022/06/10 16:24:34;;;;;;;4.40;3.80;;;;;;;25.20;45.45;100124.86;103777;1315;82129;-90
2022/06/10 16:30:14;;;;;;;5.60;3.80;;;;;;;25.17;45.44;100131.73;103768;1315;67796;-90
2022/06/10 16:35:54;;;;;;;5.00;3.60;;;;;;;25.23;45.46;100138.77;103746;1315;75527;-89
2022/06/10 16:41:43;;;;;;;4.70;3.00;;;;;;;25.22;45.61;100155.61;103784;1315;67139;-89
2022/06/10 16:44:50;;;;;;;3.50;3.10;;;;;;;25.18;45.69;100160.44;103694;1315;67337;-89
2022/06/10 16:50:27;;;;;;;4.90;3.20;;;;;;;25.22;45.88;100161.99;103675;1315;67443;-91
2022/06/10 16:53:34;;;;;;;4.90;3.00;;;;;;;25.24;45.89;100155.07;103770;1316;82029;-89
2022/06/10 17:02:17;;;;;;;4.80;2.80;;;;;;;25.21;45.94;100158.52;101939;1315;68024;-90
2022/06/10 17:05:20;;;;;;;4.40;3.00;;;;;;;25.24;46.18;100159.55;103734;1315;73442;-90
2022/06/10 17:11:10;;;;;;;3.00;2.70;;;;;;;25.18;46.17;100162.66;103767;1313;72273;-89
2022/06/10 17:16:49;;;;;;;4.00;3.10;;;;;;;25.21;46.29;100169.58;103730;1315;68254;-90
2022/06/10 17:22:33;;;;;;;5.30;2.80;;;;;;;25.25;46.40;100174.27;103791;1315;82455;-88
2022/06/10 17:28:32;;;;;;;3.50;3.00;;;;;;;25.28;46.42;100173.46;103773;1315;67709;31
2022/06/10 17:37:14;;;;;;;5.70;3.30;;;;;;;25.26;46.61;100180.46;103783;1316;81901;-89
2022/06/10 17:40:22;;;;;;;3.90;3.10;;;;;;;25.24;46.27;100177.36;103839;1315;72265;31
2022/06/10 17:46:18;;;;;;;5.00;3.30;;;;;;;25.11;46.56;100179.55;103145;1315;67817;31
2022/06/10 17:58:15;;;;;;;4.20;2.90;;;;;;;25.19;46.77;100168.08;103802;1315;67678;31
2022/06/10 18:07:17;;;;;;;3.40;3.00;;;;;;;25.19;46.88;100167.44;102140;1315;81992;-88
2022/06/10 18:14:53;;;;;;;4.80;3.20;;;;;;;25.24;46.77;100169.34;103752;1315;67712;-89
2022/06/10 18:18:34;;;;;;;3.20;2.90;;;;;;;25.16;46.93;100173.57;103782;1318;74991;-89
2022/06/10 18:24:55;;;;;;;3.40;3.10;;;;;;;25.20;46.91;100181.04;103710;1327;72777;-90
2022/06/10 18:28:01;;;;;;;3.70;3.10;;;;;;;25.19;46.89;100180.95;103783;1316;68091;-90
2022/06/10 18:33:52;;;;;;;3.60;2.90;;;;;;;25.18;46.98;100181.95;103792;1315;74200;-90
2022/06/10 18:42:20;;;;;;;5.20;3.40;;;;;;;25.19;46.98;100195.48;103801;1315;68041;-88
2022/06/10 18:47:55;;;;;;;4.40;3.20;;;;;;;25.21;47.02;100200.02;103769;1315;74312;-90
2022/06/10 18:53:31;;;;;;;3.90;3.20;;;;;;;25.22;47.04;100204.02;103748;1316;72297;-90
2022/06/10 18:59:07;;;;;;;4.50;3.40;;;;;;;25.20;47.27;100208.90;103745;1315;67132;-89
2022/06/10 19:04:49;;;;;;;7.30;3.20;;;;;;;25.26;47.24;100216.04;103737;1315;82243;-91
2022/06/10 19:10:21;;;;;;;4.50;3.30;;;;;;;25.18;47.24;100218.46;103723;1315;67692;-90
2022/06/10 19:15:57;;;;;;;4.30;3.70;;;;;;;25.25;47.27;100217.65;103766;1315;74173;31
2022/06/10 19:27:21;;;;;;;6.40;3.60;;;;;;;25.19;47.39;100217.63;103256;1327;67655;-88
2022/06/10 19:36:38;;;;;;;6.00;3.80;;;;;;;25.18;47.42;100213.11;103699;1315;72315;-91
2022/06/10 19:42:06;;;;;;;5.60;3.70;;;;;;;25.24;47.44;100211.14;103842;1315;68169;-91
2022/06/10 19:45:08;;;;;;;5.20;3.70;;;;;;;25.25;47.42;100211.23;103808;1315;74307;-90
2022/06/10 19:50:55;;;;;;;5.10;3.70;;;;;;;25.20;47.50;100219.20;103785;1315;71213;-89
2022/06/10 19:56:34;;;;;;;4.50;4.00;;;;;;;25.28;47.57;100222.17;103792;1315;67708;-91
2022/06/10 20:02:08;;;;;;;5.40;3.40;;;;;;;25.21;47.47;100222.02;103788;1315;81688;-90
2022/06/10 20:07:40;;;;;;;7.60;3.70;;;;;;;25.25;47.47;100216.67;103780;1315;67737;-89
2022/06/10 20:13:31;;;;;;;6.30;3.40;;;;;;;25.21;47.28;100227.30;103745;1315;74010;-90
2022/06/10 20:19:22;;;;;;;4.90;3.20;;;;;;;25.17;47.57;100220.02;103729;1315;71064;-89
2022/06/10 20:24:56;;;;;;;8.40;3.40;;;;;;;25.21;47.16;100234.41;103739;1315;67718;-89
2022/06/10 20:30:48;;;;;;;4.20;3.30;;;;;;;25.24;46.99;100231.17;103812;1315;81952;-89
2022/06/10 20:36:26;;;;;;;5.30;3.30;;;;;;;25.21;46.92;100229.84;103755;1316;67065;-89
2022/06/10 20:39:34;;;;;;;6.10;3.40;;;;;;;25.19;46.82;100230.45;103849;1315;66150;-90
2022/06/10 20:45:32;;;;;;;4.40;3.30;;;;;;;25.10;46.80;100231.26;103764;1318;81612;-89
2022/06/10 20:51:07;;;;;;;4.00;3.10;;;;;;;25.08;46.79;100228.76;103763;1315;67727;-91
2022/06/10 20:56:41;;;;;;;4.70;3.20;;;;;;;25.17;46.75;100237.08;103795;1315;73022;-90
2022/06/10 21:02:21;;;;;;;4.10;3.10;;;;;;;25.14;46.58;100231.48;103801;1315;71275;-90
2022/06/10 21:08:01;;;;;;;5.00;3.40;;;;;;;25.17;46.53;100227.70;103732;1316;67789;-89
2022/06/10 21:13:53;;;;;;;4.10;3.20;;;;;;;25.18;46.42;100231.84;103697;1315;82049;-90
2022/06/10 21:19:34;;;;;;;4.90;3.50;;;;;;;25.14;46.51;100232.96;103726;1315;67133;-90
2022/06/10 21:25:13;;;;;;;5.60;3.30;;;;;;;25.20;46.15;100233.41;103757;1315;74089;-89
2022/06/10 21:30:49;;;;;;;4.40;3.60;;;;;;;25.12;46.15;100230.80;103795;1315;72403;-89
2022/06/10 21:36:29;;;;;;;4.30;3.30;;;;;;;25.16;45.99;100225.48;103773;1315;67651;31
2022/06/10 21:44:48;;;;;;;3.90;3.20;;;;;;;25.11;46.09;100228.30;103815;1315;67646;-90
2022/06/10 21:50:37;;;;;;;6.90;3.20;;;;;;;25.16;45.82;100229.58;103786;1316;67807;-90
2022/06/10 21:59:10;;;;;;;5.30;3.50;;;;;;;25.11;45.96;100234.21;103713;1315;72239;-91
2022/06/10 22:04:47;;;;;;;5.30;3.30;;;;;;;25.15;45.79;100240.45;103722;1315;67142;-90
2022/06/10 22:10:21;;;;;;;5.40;3.30;;;;;;;25.09;45.82;100241.20;103776;1315;82429;-89
2022/06/10 22:15:55;;;;;;;4.20;3.20;;;;;;;25.15;45.88;100236.67;103744;1315;67857;-90
2022/06/10 22:21:36;;;;;;;4.40;3.20;;;;;;;25.12;45.67;100230.45;103760;1315;74211;-88
2022/06/10 22:27:16;;;;;;;4.80;3.40;;;;;;;25.13;45.78;100230.72;103751;1318;72239;-91
2022/06/10 22:33:00;;;;;;;5.00;3.30;;;;;;;25.14;45.60;100230.34;103754;1315;68097;-90
2022/06/10 22:41:26;;;;;;;3.90;3.40;;;;;;;25.13;45.76;100228.67;103777;1315;72334;-90
2022/06/10 22:47:03;;;;;;;4.80;3.10;;;;;;;25.11;45.75;100230.61;103835;1315;67450;-89
2022/06/10 22:55:43;;;;;;;4.10;3.20;;;;;;;25.18;45.64;100218.52;103764;1316;72085;-88
2022/06/10 23:01:20;;;;;;;4.30;3.50;;;;;;;25.13;45.35;100214.83;103776;1315;67157;-90
2022/06/10 23:06:56;;;;;;;4.90;3.60;;;;;;;25.12;45.60;100209.49;103803;1315;75758;-90
2022/06/10 23:12:32;;;;;;;3.60;3.20;;;;;;;25.14;45.48;100212.02;103785;1315;67004;-90
2022/06/10 23:15:39;;;;;;;3.60;3.10;;;;;;;25.11;45.26;100214.30;103778;1315;67648;-90
2022/06/10 23:21:30;;;;;;;8.60;3.90;;;;;;;25.14;45.55;100213.21;103815;1315;81908;-90
2022/06/10 23:27:11;;;;;;;4.20;3.30;;;;;;;25.15;45.58;100209.84;103789;1316;67635;-89
2022/06/10 23:32:47;;;;;;;7.10;3.60;;;;;;;25.13;45.34;100207.62;103770;1319;72748;-89
2022/06/10 23:41:23;;;;;;;5.30;3.20;;;;;;;25.11;45.30;100204.00;103716;1315;67693;-90
2022/06/10 23:53:10;;;;;;;4.20;3.10;;;;;;;25.00;45.48;100194.52;103797;1315;71123;-90
2022/06/10 23:58:49;;;;;;;4.80;3.10;;;;;;;25.09;45.53;100194.05;103758;1315;67836;-89
